sensor_id;sensor_type;location;lat;lon;timestamp;P1;durP1;ratioP1;P2;durP2;ratioP2
20653;SDS011;21083;50.898;4.902;2023-09-12T00:01:03;21.92;;;10.63;;
20653;SDS011;21083;50.898;4.902;2023-09-12T00:03:31;21.17;;;10.98;;
20653;SDS011;21083;50.898;4.902;2023-09-12T00:05:59;21.45;;;11.77;;
20653;SDS011;21083;50.898;4.902;2023-09-12T00:08:27;20.75;;;10.68;;
20653;SDS011;21083;50.898;4.902;2023-09-12T00:10:59;24.25;;;12.00;;
20653;SDS011;21083;50.898;4.902;2023-09-12T00:13:28;22.38;;;12.38;;
20653;SDS011;21083;50.898;4.902;2023-09-12T00:15:55;20.23;;;11.43;;
20653;SDS011;21083;50.898;4.902;2023-09-12T00:18:22;18.73;;;11.15;;
20653;SDS011;21083;50.898;4.902;2023-09-12T00:20:50;19.33;;;11.15;;
20653;SDS011;21083;50.898;4.902;2023-09-12T00:23:17;18.98;;;10.50;;
20653;SDS011;21083;50.898;4.902;2023-09-12T00:25:45;23.58;;;11.85;;
20653;SDS011;21083;50.898;4.902;2023-09-12T00:28:13;21.77;;;11.75;;
20653;SDS011;21083;50.898;4.902;2023-09-12T00:30:40;20.27;;;11.88;;
20653;SDS011;21083;50.898;4.902;2023-09-12T00:33:07;21.58;;;12.05;;
20653;SDS011;21083;50.898;4.902;2023-09-12T00:35:34;25.10;;;11.60;;
20653;SDS011;21083;50.898;4.902;2023-09-12T00:38:01;18.85;;;10.30;;
20653;SDS011;21083;50.898;4.902;2023-09-12T00:40:28;23.85;;;11.85;;
20653;SDS011;21083;50.898;4.902;2023-09-12T00:42:55;21.75;;;12.43;;
20653;SDS011;21083;50.898;4.902;2023-09-12T00:45:23;22.17;;;12.25;;
20653;SDS011;21083;50.898;4.902;2023-09-12T00:47:50;23.10;;;12.40;;
20653;SDS011;21083;50.898;4.902;2023-09-12T00:50:19;21.45;;;12.15;;
20653;SDS011;21083;50.898;4.902;2023-09-12T00:52:49;21.88;;;11.57;;
20653;SDS011;21083;50.898;4.902;2023-09-12T00:55:16;24.30;;;13.20;;
20653;SDS011;21083;50.898;4.902;2023-09-12T00:57:43;20.92;;;12.23;;
20653;SDS011;21083;50.898;4.902;2023-09-12T01:00:12;22.98;;;13.93;;
20653;SDS011;21083;50.898;4.902;2023-09-12T01:02:41;23.63;;;13.75;;
20653;SDS011;21083;50.898;4.902;2023-09-12T01:05:10;24.83;;;13.50;;
20653;SDS011;21083;50.898;4.902;2023-09-12T01:07:38;21.80;;;12.68;;
20653;SDS011;21083;50.898;4.902;2023-09-12T01:10:06;23.60;;;11.60;;
20653;SDS011;21083;50.898;4.902;2023-09-12T01:12:34;22.70;;;12.80;;
20653;SDS011;21083;50.898;4.902;2023-09-12T01:15:01;20.38;;;11.80;;
20653;SDS011;21083;50.898;4.902;2023-09-12T01:17:31;21.98;;;12.85;;
20653;SDS011;21083;50.898;4.902;2023-09-12T01:19:59;20.67;;;11.65;;
20653;SDS011;21083;50.898;4.902;2023-09-12T01:25:40;18.98;;;11.63;;
20653;SDS011;21083;50.898;4.902;2023-09-12T01:28:20;21.67;;;13.25;;
20653;SDS011;21083;50.898;4.902;2023-09-12T01:30:50;23.55;;;12.20;;
20653;SDS011;21083;50.898;4.902;2023-09-12T01:33:19;21.80;;;12.48;;
20653;SDS011;21083;50.898;4.902;2023-09-12T01:35:46;22.55;;;11.80;;
20653;SDS011;21083;50.898;4.902;2023-09-12T01:38:13;20.48;;;12.32;;
20653;SDS011;21083;50.898;4.902;2023-09-12T01:40:42;23.67;;;13.13;;
20653;SDS011;21083;50.898;4.902;2023-09-12T01:43:12;23.05;;;12.57;;
20653;SDS011;21083;50.898;4.902;2023-09-12T01:45:44;23.05;;;12.52;;
20653;SDS011;21083;50.898;4.902;2023-09-12T01:48:11;20.38;;;12.45;;
20653;SDS011;21083;50.898;4.902;2023-09-12T01:50:42;25.17;;;13.65;;
20653;SDS011;21083;50.898;4.902;2023-09-12T01:53:10;21.67;;;13.80;;
20653;SDS011;21083;50.898;4.902;2023-09-12T01:55:39;26.33;;;13.57;;
20653;SDS011;21083;50.898;4.902;2023-09-12T01:58:07;27.02;;;14.60;;
20653;SDS011;21083;50.898;4.902;2023-09-12T02:00:35;26.25;;;13.85;;
20653;SDS011;21083;50.898;4.902;2023-09-12T02:03:04;23.23;;;13.57;;
20653;SDS011;21083;50.898;4.902;2023-09-12T02:05:31;24.33;;;12.70;;
20653;SDS011;21083;50.898;4.902;2023-09-12T02:07:58;20.92;;;13.25;;
20653;SDS011;21083;50.898;4.902;2023-09-12T02:10:26;20.52;;;12.40;;
20653;SDS011;21083;50.898;4.902;2023-09-12T02:12:53;21.92;;;11.40;;
20653;SDS011;21083;50.898;4.902;2023-09-12T02:15:20;25.27;;;11.93;;
20653;SDS011;21083;50.898;4.902;2023-09-12T02:17:47;19.58;;;11.88;;
20653;SDS011;21083;50.898;4.902;2023-09-12T02:20:17;22.63;;;11.45;;
20653;SDS011;21083;50.898;4.902;2023-09-12T02:22:45;22.23;;;12.52;;
20653;SDS011;21083;50.898;4.902;2023-09-12T02:25:11;21.77;;;12.55;;
20653;SDS011;21083;50.898;4.902;2023-09-12T02:27:38;23.48;;;14.20;;
20653;SDS011;21083;50.898;4.902;2023-09-12T02:30:06;22.40;;;13.18;;
20653;SDS011;21083;50.898;4.902;2023-09-12T02:32:33;21.98;;;12.88;;
20653;SDS011;21083;50.898;4.902;2023-09-12T02:35:00;24.55;;;13.13;;
20653;SDS011;21083;50.898;4.902;2023-09-12T02:37:29;25.70;;;13.65;;
20653;SDS011;21083;50.898;4.902;2023-09-12T02:39:56;23.27;;;12.90;;
20653;SDS011;21083;50.898;4.902;2023-09-12T02:42:23;28.35;;;13.82;;
20653;SDS011;21083;50.898;4.902;2023-09-12T02:44:50;25.00;;;14.07;;
20653;SDS011;21083;50.898;4.902;2023-09-12T02:47:18;22.60;;;13.25;;
20653;SDS011;21083;50.898;4.902;2023-09-12T02:49:45;25.17;;;14.38;;
20653;SDS011;21083;50.898;4.902;2023-09-12T02:52:12;24.13;;;12.73;;
20653;SDS011;21083;50.898;4.902;2023-09-12T02:54:40;22.00;;;13.02;;
20653;SDS011;21083;50.898;4.902;2023-09-12T02:57:07;23.13;;;11.43;;
20653;SDS011;21083;50.898;4.902;2023-09-12T02:59:34;22.92;;;11.82;;
20653;SDS011;21083;50.898;4.902;2023-09-12T03:02:01;22.20;;;12.95;;
20653;SDS011;21083;50.898;4.902;2023-09-12T03:04:29;23.42;;;13.50;;
20653;SDS011;21083;50.898;4.902;2023-09-12T03:06:56;22.13;;;12.70;;
20653;SDS011;21083;50.898;4.902;2023-09-12T03:09:23;24.17;;;12.85;;
20653;SDS011;21083;50.898;4.902;2023-09-12T03:11:51;22.17;;;12.60;;
20653;SDS011;21083;50.898;4.902;2023-09-12T03:14:18;19.88;;;11.65;;
20653;SDS011;21083;50.898;4.902;2023-09-12T03:16:45;19.95;;;11.48;;
20653;SDS011;21083;50.898;4.902;2023-09-12T03:19:15;21.67;;;12.50;;
20653;SDS011;21083;50.898;4.902;2023-09-12T03:21:41;23.08;;;12.82;;
20653;SDS011;21083;50.898;4.902;2023-09-12T03:24:08;22.88;;;13.45;;
20653;SDS011;21083;50.898;4.902;2023-09-12T03:26:36;19.20;;;11.70;;
20653;SDS011;21083;50.898;4.902;2023-09-12T03:29:04;22.88;;;13.13;;
20653;SDS011;21083;50.898;4.902;2023-09-12T03:31:31;23.83;;;12.75;;
20653;SDS011;21083;50.898;4.902;2023-09-12T03:33:58;23.95;;;13.43;;
20653;SDS011;21083;50.898;4.902;2023-09-12T03:36:25;23.63;;;14.13;;
20653;SDS011;21083;50.898;4.902;2023-09-12T03:38:52;25.27;;;14.18;;
20653;SDS011;21083;50.898;4.902;2023-09-12T03:41:19;21.88;;;12.90;;
20653;SDS011;21083;50.898;4.902;2023-09-12T03:43:50;21.83;;;13.38;;
20653;SDS011;21083;50.898;4.902;2023-09-12T03:46:20;25.80;;;14.45;;
20653;SDS011;21083;50.898;4.902;2023-09-12T03:48:47;26.77;;;13.82;;
20653;SDS011;21083;50.898;4.902;2023-09-12T03:51:15;24.85;;;12.50;;
20653;SDS011;21083;50.898;4.902;2023-09-12T03:53:42;23.58;;;13.55;;
20653;SDS011;21083;50.898;4.902;2023-09-12T03:56:09;24.70;;;15.45;;
20653;SDS011;21083;50.898;4.902;2023-09-12T03:58:37;26.38;;;14.77;;
20653;SDS011;21083;50.898;4.902;2023-09-12T04:01:04;29.15;;;16.45;;
20653;SDS011;21083;50.898;4.902;2023-09-12T04:03:33;29.90;;;17.42;;
20653;SDS011;21083;50.898;4.902;2023-09-12T04:06:00;31.02;;;16.60;;
20653;SDS011;21083;50.898;4.902;2023-09-12T04:08:27;26.50;;;15.10;;
20653;SDS011;21083;50.898;4.902;2023-09-12T04:10:54;27.50;;;15.85;;
20653;SDS011;21083;50.898;4.902;2023-09-12T04:13:21;25.55;;;15.82;;
20653;SDS011;21083;50.898;4.902;2023-09-12T04:15:48;29.70;;;17.17;;
20653;SDS011;21083;50.898;4.902;2023-09-12T04:18:14;29.48;;;16.45;;
20653;SDS011;21083;50.898;4.902;2023-09-12T04:20:43;25.63;;;15.32;;
20653;SDS011;21083;50.898;4.902;2023-09-12T04:23:10;26.55;;;16.42;;
20653;SDS011;21083;50.898;4.902;2023-09-12T04:25:37;26.52;;;15.30;;
20653;SDS011;21083;50.898;4.902;2023-09-12T04:28:04;25.88;;;16.10;;
20653;SDS011;21083;50.898;4.902;2023-09-12T04:30:31;27.15;;;15.30;;
20653;SDS011;21083;50.898;4.902;2023-09-12T04:32:58;24.67;;;14.77;;
20653;SDS011;21083;50.898;4.902;2023-09-12T04:35:25;27.00;;;15.75;;
20653;SDS011;21083;50.898;4.902;2023-09-12T04:37:53;31.30;;;17.33;;
20653;SDS011;21083;50.898;4.902;2023-09-12T04:40:20;31.10;;;18.25;;
20653;SDS011;21083;50.898;4.902;2023-09-12T04:42:47;30.85;;;18.50;;
20653;SDS011;21083;50.898;4.902;2023-09-12T04:45:14;28.58;;;17.98;;
20653;SDS011;21083;50.898;4.902;2023-09-12T04:47:41;36.20;;;19.55;;
20653;SDS011;21083;50.898;4.902;2023-09-12T04:50:09;34.55;;;20.50;;
20653;SDS011;21083;50.898;4.902;2023-09-12T04:52:36;29.23;;;17.95;;
20653;SDS011;21083;50.898;4.902;2023-09-12T04:55:05;32.33;;;18.75;;
20653;SDS011;21083;50.898;4.902;2023-09-12T04:57:33;30.63;;;18.20;;
20653;SDS011;21083;50.898;4.902;2023-09-12T05:00:00;27.55;;;17.20;;
20653;SDS011;21083;50.898;4.902;2023-09-12T05:02:26;33.85;;;19.23;;
20653;SDS011;21083;50.898;4.902;2023-09-12T05:04:53;39.33;;;19.45;;
20653;SDS011;21083;50.898;4.902;2023-09-12T05:07:20;32.40;;;19.48;;
20653;SDS011;21083;50.898;4.902;2023-09-12T05:09:53;33.83;;;19.58;;
20653;SDS011;21083;50.898;4.902;2023-09-12T05:12:21;33.70;;;20.15;;
20653;SDS011;21083;50.898;4.902;2023-09-12T05:14:48;38.67;;;21.00;;
20653;SDS011;21083;50.898;4.902;2023-09-12T05:17:15;31.90;;;20.52;;
20653;SDS011;21083;50.898;4.902;2023-09-12T05:19:42;38.35;;;21.75;;
20653;SDS011;21083;50.898;4.902;2023-09-12T05:22:09;36.33;;;19.67;;
20653;SDS011;21083;50.898;4.902;2023-09-12T05:24:36;37.95;;;19.10;;
20653;SDS011;21083;50.898;4.902;2023-09-12T05:27:03;41.33;;;20.63;;
20653;SDS011;21083;50.898;4.902;2023-09-12T05:29:32;33.72;;;19.27;;
20653;SDS011;21083;50.898;4.902;2023-09-12T05:31:59;32.33;;;19.42;;
20653;SDS011;21083;50.898;4.902;2023-09-12T05:34:26;31.98;;;18.02;;
20653;SDS011;21083;50.898;4.902;2023-09-12T05:36:53;32.95;;;18.38;;
20653;SDS011;21083;50.898;4.902;2023-09-12T05:39:20;32.60;;;18.80;;
20653;SDS011;21083;50.898;4.902;2023-09-12T05:41:47;33.58;;;18.85;;
20653;SDS011;21083;50.898;4.902;2023-09-12T05:44:14;36.22;;;20.23;;
20653;SDS011;21083;50.898;4.902;2023-09-12T05:46:45;36.42;;;19.27;;
20653;SDS011;21083;50.898;4.902;2023-09-12T05:49:12;33.75;;;17.23;;
20653;SDS011;21083;50.898;4.902;2023-09-12T05:51:39;30.33;;;17.83;;
20653;SDS011;21083;50.898;4.902;2023-09-12T05:54:07;32.00;;;19.08;;
20653;SDS011;21083;50.898;4.902;2023-09-12T05:56:37;30.83;;;18.73;;
20653;SDS011;21083;50.898;4.902;2023-09-12T05:59:04;36.58;;;19.33;;
20653;SDS011;21083;50.898;4.902;2023-09-12T06:01:31;32.35;;;18.20;;
20653;SDS011;21083;50.898;4.902;2023-09-12T06:03:59;33.05;;;19.35;;
20653;SDS011;21083;50.898;4.902;2023-09-12T06:06:27;33.38;;;19.63;;
20653;SDS011;21083;50.898;4.902;2023-09-12T06:08:54;36.40;;;21.40;;
20653;SDS011;21083;50.898;4.902;2023-09-12T06:11:21;30.73;;;18.40;;
20653;SDS011;21083;50.898;4.902;2023-09-12T06:13:48;32.90;;;17.83;;
20653;SDS011;21083;50.898;4.902;2023-09-12T06:16:15;31.23;;;19.00;;
20653;SDS011;21083;50.898;4.902;2023-09-12T06:18:42;31.45;;;19.58;;
20653;SDS011;21083;50.898;4.902;2023-09-12T06:21:11;35.70;;;19.60;;
20653;SDS011;21083;50.898;4.902;2023-09-12T06:23:37;33.72;;;18.75;;
20653;SDS011;21083;50.898;4.902;2023-09-12T06:26:04;32.22;;;19.08;;
20653;SDS011;21083;50.898;4.902;2023-09-12T06:28:31;32.05;;;18.30;;
20653;SDS011;21083;50.898;4.902;2023-09-12T06:30:58;36.45;;;20.77;;
20653;SDS011;21083;50.898;4.902;2023-09-12T06:33:25;32.50;;;19.92;;
20653;SDS011;21083;50.898;4.902;2023-09-12T06:35:53;31.73;;;18.55;;
20653;SDS011;21083;50.898;4.902;2023-09-12T06:38:22;36.08;;;21.15;;
20653;SDS011;21083;50.898;4.902;2023-09-12T06:40:49;33.25;;;20.40;;
20653;SDS011;21083;50.898;4.902;2023-09-12T06:43:16;32.20;;;18.98;;
20653;SDS011;21083;50.898;4.902;2023-09-12T06:45:43;37.70;;;20.02;;
20653;SDS011;21083;50.898;4.902;2023-09-12T06:48:12;35.80;;;20.90;;
20653;SDS011;21083;50.898;4.902;2023-09-12T06:50:39;42.58;;;22.35;;
20653;SDS011;21083;50.898;4.902;2023-09-12T06:53:06;37.67;;;21.08;;
20653;SDS011;21083;50.898;4.902;2023-09-12T06:55:34;36.53;;;22.40;;
20653;SDS011;21083;50.898;4.902;2023-09-12T06:58:01;42.08;;;23.83;;
20653;SDS011;21083;50.898;4.902;2023-09-12T07:00:29;35.45;;;20.73;;
20653;SDS011;21083;50.898;4.902;2023-09-12T07:02:56;47.83;;;25.08;;
20653;SDS011;21083;50.898;4.902;2023-09-12T07:05:23;45.28;;;25.33;;
20653;SDS011;21083;50.898;4.902;2023-09-12T07:07:50;48.28;;;26.05;;
20653;SDS011;21083;50.898;4.902;2023-09-12T07:10:18;44.75;;;25.05;;
20653;SDS011;21083;50.898;4.902;2023-09-12T07:12:46;42.13;;;23.60;;
20653;SDS011;21083;50.898;4.902;2023-09-12T07:15:13;47.78;;;25.60;;
20653;SDS011;21083;50.898;4.902;2023-09-12T07:17:40;44.92;;;26.02;;
20653;SDS011;21083;50.898;4.902;2023-09-12T07:20:08;48.63;;;27.50;;
20653;SDS011;21083;50.898;4.902;2023-09-12T07:22:37;48.85;;;26.38;;
20653;SDS011;21083;50.898;4.902;2023-09-12T07:25:05;50.42;;;27.80;;
20653;SDS011;21083;50.898;4.902;2023-09-12T07:27:34;46.70;;;25.73;;
20653;SDS011;21083;50.898;4.902;2023-09-12T07:30:03;47.15;;;26.58;;
20653;SDS011;21083;50.898;4.902;2023-09-12T07:32:30;40.35;;;23.67;;
20653;SDS011;21083;50.898;4.902;2023-09-12T07:34:57;44.47;;;24.83;;
20653;SDS011;21083;50.898;4.902;2023-09-12T07:37:24;41.75;;;21.88;;
20653;SDS011;21083;50.898;4.902;2023-09-12T07:39:51;45.45;;;25.80;;
20653;SDS011;21083;50.898;4.902;2023-09-12T07:42:20;38.83;;;24.52;;
20653;SDS011;21083;50.898;4.902;2023-09-12T07:44:48;43.08;;;23.45;;
20653;SDS011;21083;50.898;4.902;2023-09-12T07:47:16;38.20;;;23.08;;
20653;SDS011;21083;50.898;4.902;2023-09-12T07:49:43;35.67;;;20.48;;
20653;SDS011;21083;50.898;4.902;2023-09-12T07:52:10;40.20;;;22.63;;
20653;SDS011;21083;50.898;4.902;2023-09-12T07:54:37;31.75;;;18.77;;
20653;SDS011;21083;50.898;4.902;2023-09-12T07:57:04;39.35;;;22.17;;
20653;SDS011;21083;50.898;4.902;2023-09-12T07:59:31;32.03;;;19.70;;
20653;SDS011;21083;50.898;4.902;2023-09-12T08:01:59;38.03;;;21.65;;
20653;SDS011;21083;50.898;4.902;2023-09-12T08:04:27;41.85;;;21.48;;
20653;SDS011;21083;50.898;4.902;2023-09-12T08:06:55;39.67;;;20.92;;
20653;SDS011;21083;50.898;4.902;2023-09-12T08:09:22;33.88;;;20.00;;
20653;SDS011;21083;50.898;4.902;2023-09-12T08:11:49;37.20;;;18.77;;
20653;SDS011;21083;50.898;4.902;2023-09-12T08:14:16;36.67;;;20.27;;
20653;SDS011;21083;50.898;4.902;2023-09-12T08:16:45;35.45;;;20.38;;
20653;SDS011;21083;50.898;4.902;2023-09-12T08:19:12;31.20;;;17.48;;
20653;SDS011;21083;50.898;4.902;2023-09-12T08:21:40;40.78;;;20.92;;
20653;SDS011;21083;50.898;4.902;2023-09-12T08:24:07;37.03;;;21.30;;
20653;SDS011;21083;50.898;4.902;2023-09-12T08:26:34;32.55;;;17.83;;
20653;SDS011;21083;50.898;4.902;2023-09-12T08:29:01;21.67;;;12.38;;
20653;SDS011;21083;50.898;4.902;2023-09-12T08:31:28;31.63;;;18.45;;
20653;SDS011;21083;50.898;4.902;2023-09-12T08:33:55;33.75;;;18.83;;
20653;SDS011;21083;50.898;4.902;2023-09-12T08:36:22;41.67;;;21.55;;
20653;SDS011;21083;50.898;4.902;2023-09-12T08:38:51;39.67;;;22.60;;
20653;SDS011;21083;50.898;4.902;2023-09-12T08:41:18;38.03;;;19.85;;
20653;SDS011;21083;50.898;4.902;2023-09-12T08:43:45;32.33;;;17.77;;
20653;SDS011;21083;50.898;4.902;2023-09-12T08:46:12;35.55;;;19.25;;
20653;SDS011;21083;50.898;4.902;2023-09-12T08:48:41;33.83;;;17.45;;
20653;SDS011;21083;50.898;4.902;2023-09-12T08:51:10;31.92;;;17.40;;
20653;SDS011;21083;50.898;4.902;2023-09-12T08:53:38;40.47;;;19.30;;
20653;SDS011;21083;50.898;4.902;2023-09-12T08:56:07;40.25;;;21.02;;
20653;SDS011;21083;50.898;4.902;2023-09-12T08:58:35;35.22;;;19.05;;
20653;SDS011;21083;50.898;4.902;2023-09-12T09:01:03;30.08;;;17.98;;
20653;SDS011;21083;50.898;4.902;2023-09-12T09:03:32;34.28;;;19.60;;
20653;SDS011;21083;50.898;4.902;2023-09-12T09:06:00;35.47;;;18.58;;
20653;SDS011;21083;50.898;4.902;2023-09-12T09:08:28;40.03;;;20.45;;
20653;SDS011;21083;50.898;4.902;2023-09-12T09:10:57;33.08;;;19.30;;
20653;SDS011;21083;50.898;4.902;2023-09-12T09:13:29;34.47;;;21.38;;
20653;SDS011;21083;50.898;4.902;2023-09-12T09:16:12;37.92;;;20.23;;
20653;SDS011;21083;50.898;4.902;2023-09-12T09:18:49;29.10;;;17.75;;
20653;SDS011;21083;50.898;4.902;2023-09-12T09:21:21;28.05;;;16.65;;
20653;SDS011;21083;50.898;4.902;2023-09-12T09:23:50;37.58;;;19.70;;
20653;SDS011;21083;50.898;4.902;2023-09-12T09:26:18;34.85;;;18.65;;
20653;SDS011;21083;50.898;4.902;2023-09-12T09:28:47;27.05;;;17.02;;
20653;SDS011;21083;50.898;4.902;2023-09-12T09:31:30;29.70;;;16.45;;
20653;SDS011;21083;50.898;4.902;2023-09-12T09:33:59;36.10;;;18.92;;
20653;SDS011;21083;50.898;4.902;2023-09-12T09:36:27;28.40;;;15.98;;
20653;SDS011;21083;50.898;4.902;2023-09-12T09:38:56;29.65;;;17.90;;
20653;SDS011;21083;50.898;4.902;2023-09-12T09:41:24;29.20;;;15.80;;
20653;SDS011;21083;50.898;4.902;2023-09-12T09:43:53;28.63;;;16.30;;
20653;SDS011;21083;50.898;4.902;2023-09-12T09:46:21;33.58;;;20.10;;
20653;SDS011;21083;50.898;4.902;2023-09-12T09:48:51;33.63;;;19.45;;
20653;SDS011;21083;50.898;4.902;2023-09-12T09:51:19;33.58;;;18.90;;
20653;SDS011;21083;50.898;4.902;2023-09-12T09:53:45;30.65;;;18.48;;
20653;SDS011;21083;50.898;4.902;2023-09-12T09:56:17;29.65;;;18.88;;
20653;SDS011;21083;50.898;4.902;2023-09-12T09:58:47;27.63;;;15.93;;
20653;SDS011;21083;50.898;4.902;2023-09-12T10:01:16;35.20;;;17.23;;
20653;SDS011;21083;50.898;4.902;2023-09-12T10:03:45;25.73;;;15.32;;
20653;SDS011;21083;50.898;4.902;2023-09-12T10:06:14;26.50;;;14.75;;
20653;SDS011;21083;50.898;4.902;2023-09-12T10:08:43;23.63;;;13.00;;
20653;SDS011;21083;50.898;4.902;2023-09-12T10:11:11;25.38;;;11.73;;
20653;SDS011;21083;50.898;4.902;2023-09-12T10:13:40;20.38;;;11.77;;
20653;SDS011;21083;50.898;4.902;2023-09-12T10:16:11;21.17;;;11.43;;
20653;SDS011;21083;50.898;4.902;2023-09-12T10:18:42;26.13;;;11.70;;
20653;SDS011;21083;50.898;4.902;2023-09-12T10:21:17;20.80;;;11.30;;
20653;SDS011;21083;50.898;4.902;2023-09-12T10:23:48;20.25;;;9.63;;
20653;SDS011;21083;50.898;4.902;2023-09-12T10:26:16;20.58;;;9.75;;
20653;SDS011;21083;50.898;4.902;2023-09-12T10:28:44;21.30;;;12.07;;
20653;SDS011;21083;50.898;4.902;2023-09-12T10:31:13;19.13;;;10.88;;
20653;SDS011;21083;50.898;4.902;2023-09-12T10:33:42;15.98;;;9.32;;
20653;SDS011;21083;50.898;4.902;2023-09-12T10:36:11;17.83;;;8.00;;
20653;SDS011;21083;50.898;4.902;2023-09-12T10:38:40;13.88;;;6.50;;
20653;SDS011;21083;50.898;4.902;2023-09-12T10:41:11;16.75;;;7.72;;
20653;SDS011;21083;50.898;4.902;2023-09-12T10:43:40;12.25;;;5.85;;
20653;SDS011;21083;50.898;4.902;2023-09-12T10:46:08;10.57;;;5.35;;
20653;SDS011;21083;50.898;4.902;2023-09-12T10:48:35;12.32;;;5.30;;
20653;SDS011;21083;50.898;4.902;2023-09-12T10:51:06;8.75;;;4.53;;
20653;SDS011;21083;50.898;4.902;2023-09-12T10:53:34;12.27;;;6.00;;
20653;SDS011;21083;50.898;4.902;2023-09-12T10:56:14;14.05;;;6.15;;
20653;SDS011;21083;50.898;4.902;2023-09-12T11:01:38;15.15;;;6.13;;
20653;SDS011;21083;50.898;4.902;2023-09-12T11:07:01;14.68;;;5.55;;
20653;SDS011;21083;50.898;4.902;2023-09-12T11:09:49;13.45;;;6.95;;
20653;SDS011;21083;50.898;4.902;2023-09-12T11:12:44;14.98;;;6.93;;
20653;SDS011;21083;50.898;4.902;2023-09-12T11:15:14;12.70;;;5.13;;
20653;SDS011;21083;50.898;4.902;2023-09-12T11:17:42;11.30;;;6.05;;
20653;SDS011;21083;50.898;4.902;2023-09-12T11:20:09;13.50;;;6.43;;
20653;SDS011;21083;50.898;4.902;2023-09-12T11:22:39;15.38;;;7.05;;
20653;SDS011;21083;50.898;4.902;2023-09-12T11:25:17;13.57;;;6.30;;
20653;SDS011;21083;50.898;4.902;2023-09-12T11:27:45;15.05;;;6.10;;
20653;SDS011;21083;50.898;4.902;2023-09-12T11:30:29;13.52;;;6.32;;
20653;SDS011;21083;50.898;4.902;2023-09-12T11:32:58;14.82;;;7.38;;
20653;SDS011;21083;50.898;4.902;2023-09-12T11:35:26;14.77;;;6.97;;
20653;SDS011;21083;50.898;4.902;2023-09-12T11:37:56;15.60;;;7.65;;
20653;SDS011;21083;50.898;4.902;2023-09-12T11:40:25;15.45;;;7.70;;
20653;SDS011;21083;50.898;4.902;2023-09-12T11:43:07;16.92;;;6.78;;
20653;SDS011;21083;50.898;4.902;2023-09-12T11:45:44;11.57;;;6.35;;
20653;SDS011;21083;50.898;4.902;2023-09-12T11:48:12;15.00;;;7.25;;
20653;SDS011;21083;50.898;4.902;2023-09-12T11:50:39;15.57;;;7.40;;
20653;SDS011;21083;50.898;4.902;2023-09-12T11:53:09;18.02;;;7.07;;
20653;SDS011;21083;50.898;4.902;2023-09-12T11:55:42;14.02;;;7.60;;
20653;SDS011;21083;50.898;4.902;2023-09-12T11:58:10;16.25;;;6.82;;
20653;SDS011;21083;50.898;4.902;2023-09-12T12:00:37;18.52;;;7.55;;
20653;SDS011;21083;50.898;4.902;2023-09-12T12:03:11;12.73;;;6.95;;
20653;SDS011;21083;50.898;4.902;2023-09-12T12:05:38;13.23;;;7.43;;
20653;SDS011;21083;50.898;4.902;2023-09-12T12:08:06;13.63;;;6.68;;
20653;SDS011;21083;50.898;4.902;2023-09-12T12:10:35;15.73;;;7.05;;
20653;SDS011;21083;50.898;4.902;2023-09-12T12:13:04;14.73;;;6.93;;
20653;SDS011;21083;50.898;4.902;2023-09-12T12:15:31;14.30;;;7.00;;
20653;SDS011;21083;50.898;4.902;2023-09-12T12:17:58;13.13;;;6.30;;
20653;SDS011;21083;50.898;4.902;2023-09-12T12:20:25;12.30;;;6.00;;
20653;SDS011;21083;50.898;4.902;2023-09-12T12:22:55;13.98;;;5.90;;
20653;SDS011;21083;50.898;4.902;2023-09-12T12:25:22;13.85;;;6.35;;
20653;SDS011;21083;50.898;4.902;2023-09-12T12:27:50;11.88;;;6.47;;
20653;SDS011;21083;50.898;4.902;2023-09-12T12:30:18;12.07;;;6.30;;
20653;SDS011;21083;50.898;4.902;2023-09-12T12:32:46;13.40;;;5.57;;
20653;SDS011;21083;50.898;4.902;2023-09-12T12:35:17;12.48;;;6.70;;
20653;SDS011;21083;50.898;4.902;2023-09-12T12:37:45;12.63;;;6.82;;
20653;SDS011;21083;50.898;4.902;2023-09-12T12:40:14;12.00;;;6.20;;
20653;SDS011;21083;50.898;4.902;2023-09-12T12:42:42;13.10;;;5.50;;
20653;SDS011;21083;50.898;4.902;2023-09-12T12:45:13;11.68;;;6.13;;
20653;SDS011;21083;50.898;4.902;2023-09-12T12:47:41;10.60;;;5.60;;
20653;SDS011;21083;50.898;4.902;2023-09-12T12:50:10;13.82;;;5.90;;
20653;SDS011;21083;50.898;4.902;2023-09-12T12:52:38;13.32;;;6.28;;
20653;SDS011;21083;50.898;4.902;2023-09-12T12:55:05;14.85;;;5.90;;
20653;SDS011;21083;50.898;4.902;2023-09-12T12:57:35;16.73;;;6.90;;
20653;SDS011;21083;50.898;4.902;2023-09-12T13:00:05;14.65;;;6.32;;
20653;SDS011;21083;50.898;4.902;2023-09-12T13:02:35;14.80;;;7.10;;
20653;SDS011;21083;50.898;4.902;2023-09-12T13:05:02;12.60;;;6.45;;
20653;SDS011;21083;50.898;4.902;2023-09-12T13:07:33;11.48;;;5.93;;
20653;SDS011;21083;50.898;4.902;2023-09-12T13:10:00;13.90;;;6.43;;
20653;SDS011;21083;50.898;4.902;2023-09-12T13:12:28;15.52;;;7.00;;
20653;SDS011;21083;50.898;4.902;2023-09-12T13:14:55;13.82;;;7.47;;
20653;SDS011;21083;50.898;4.902;2023-09-12T13:17:23;14.98;;;7.43;;
20653;SDS011;21083;50.898;4.902;2023-09-12T13:19:51;16.23;;;8.75;;
20653;SDS011;21083;50.898;4.902;2023-09-12T13:22:18;15.90;;;7.55;;
20653;SDS011;21083;50.898;4.902;2023-09-12T13:24:45;17.75;;;7.22;;
20653;SDS011;21083;50.898;4.902;2023-09-12T13:27:12;14.00;;;6.35;;
20653;SDS011;21083;50.898;4.902;2023-09-12T13:29:40;14.77;;;7.88;;
20653;SDS011;21083;50.898;4.902;2023-09-12T13:32:07;16.88;;;8.02;;
20653;SDS011;21083;50.898;4.902;2023-09-12T13:34:35;13.45;;;6.68;;
20653;SDS011;21083;50.898;4.902;2023-09-12T13:37:03;11.95;;;6.55;;
20653;SDS011;21083;50.898;4.902;2023-09-12T13:39:30;16.13;;;8.00;;
20653;SDS011;21083;50.898;4.902;2023-09-12T13:41:57;15.13;;;7.28;;
20653;SDS011;21083;50.898;4.902;2023-09-12T13:44:28;16.20;;;7.45;;
20653;SDS011;21083;50.898;4.902;2023-09-12T13:46:55;17.77;;;7.20;;
20653;SDS011;21083;50.898;4.902;2023-09-12T13:49:22;14.13;;;7.55;;
20653;SDS011;21083;50.898;4.902;2023-09-12T13:51:49;13.70;;;7.68;;
20653;SDS011;21083;50.898;4.902;2023-09-12T13:54:17;17.80;;;6.60;;
20653;SDS011;21083;50.898;4.902;2023-09-12T13:56:44;11.40;;;5.97;;
20653;SDS011;21083;50.898;4.902;2023-09-12T13:59:11;15.95;;;6.50;;
20653;SDS011;21083;50.898;4.902;2023-09-12T14:01:38;11.45;;;6.45;;
20653;SDS011;21083;50.898;4.902;2023-09-12T14:04:05;14.63;;;6.80;;
20653;SDS011;21083;50.898;4.902;2023-09-12T14:06:32;16.80;;;7.22;;
20653;SDS011;21083;50.898;4.902;2023-09-12T14:09:01;12.20;;;7.07;;
20653;SDS011;21083;50.898;4.902;2023-09-12T14:11:30;11.98;;;6.35;;
20653;SDS011;21083;50.898;4.902;2023-09-12T14:13:57;10.90;;;6.40;;
20653;SDS011;21083;50.898;4.902;2023-09-12T14:16:24;13.85;;;6.72;;
20653;SDS011;21083;50.898;4.902;2023-09-12T14:18:51;14.82;;;6.57;;
20653;SDS011;21083;50.898;4.902;2023-09-12T14:21:18;14.45;;;6.53;;
20653;SDS011;21083;50.898;4.902;2023-09-12T14:23:45;10.23;;;5.82;;
20653;SDS011;21083;50.898;4.902;2023-09-12T14:26:12;14.23;;;6.53;;
20653;SDS011;21083;50.898;4.902;2023-09-12T14:28:40;15.52;;;6.40;;
20653;SDS011;21083;50.898;4.902;2023-09-12T14:31:11;12.30;;;6.35;;
20653;SDS011;21083;50.898;4.902;2023-09-12T14:33:40;18.52;;;8.05;;
20653;SDS011;21083;50.898;4.902;2023-09-12T14:36:07;18.73;;;8.18;;
20653;SDS011;21083;50.898;4.902;2023-09-12T14:38:35;14.02;;;6.70;;
20653;SDS011;21083;50.898;4.902;2023-09-12T14:41:02;14.95;;;7.65;;